CYYC

Calgary International Airport

Calgary, Alberta, Canada
METAR CYYC 200700Z 20004KT 15SM FEW058 M21/M25 A2991 RMK SC1 SC TR FROIN SLP228
Observed Flight Rules
Feb-20 @ 07:00 UTC (22 minutes ago) Visual Flight Rules
Wind Visibility Clouds
200° at 4 knots 15 miles
  • Few at 5,800' AGL
Temperatures Readings
Current -21°C / -6°F
Dewpoint -25°C / -13°F
Humidity 70%
Altimeter 29.91" Hg
Pressure 1022.8 hPa
Elevation 1084
METAR CYYC 200700Z 20004KT 15SM FEW058 M21/M25 A2991 RMK SC1 SC TR FROIN SLP228
Observed Flight Rules
Feb-20 @ 07:00 UTC
(22 minutes ago)
VFR
Wind Visibility
200° at 4 knots 15 miles
Clouds
  • Few at 5,800' AGL
Temperature Dewpoint
-21°C / -6°F -25°C / -13°F
Humidity Altimeter Pressure
70% 29.91" Hg 1022.8 hPa